Terminal Aerodrome Forecast
Issued by NWS

Home | Current Version | Previous Version | Text Only | Print | Product List | Glossary On
Versions: 1 2 3 4 5 6 7 8 9 10 11 12 13 14 15 16
000
FTPA31 PHFO 240520
TAFHOG
TAF
PHOG 240520Z 2406/2506 05005KT P6SM FEW025 SCT045 BKN150
     FM241000 13005KT P6SM FEW025 SCT060 BKN150
     FM242100 05012G18KT P6SM FEW030 SCT060
     FM250400 05012KT P6SM FEW030 SCT060
      AMD LTD TO VIS AND WIND 2409/2416=

USA.gov is the U.S. government's official web portal to all federal, state and local government web resources and services.